.
WxDataArchive / Data Records for 2013-10-27
2013-10-26 October 2013 2013-10-28

Data Records for Sunday, 27 October 2013

Time	Temp	Chill	HIndex	Humid	Dewpt	 Wind 	HiWind	WindDir	Rain 	Barom 
-----	----	-----	------	-----	-----	------	------	-------	-----	----- 
00:00	36.8	36.8	36.8	86	33.0	0	0	---	0.00	30.046 
00:05	36.6	36.6	36.6	86	32.8	0	0	---	0.00	30.046 
00:10	36.5	36.5	36.5	87	33.0	0	0	---	0.00	30.046 
00:15	36.3	36.3	36.3	87	32.8	0	0	---	0.00	30.042 
00:20	36.2	36.2	36.2	87	32.7	0	0	---	0.00	30.042 
00:25	36.0	36.0	36.0	87	32.5	0	0	---	0.00	30.042 
00:30	35.9	35.9	35.9	88	32.7	0	0	---	0.00	30.039 
00:35	35.9	35.9	35.9	88	32.7	0	0	---	0.00	30.039 
00:40	35.9	35.9	35.9	88	32.7	0	0	---	0.00	30.039 
00:45	35.9	35.9	35.9	88	32.7	0	0	---	0.00	30.037 
00:50	35.9	35.9	35.9	88	32.7	0	0	---	0.00	30.037 
00:55	36.0	36.0	36.0	88	32.8	0	0	---	0.00	30.037 
01:00	36.2	36.2	36.2	88	33.0	0	0	---	0.00	30.038 
01:05	36.2	36.2	36.2	89	33.3	0	0	---	0.00	30.038 
01:10	36.3	36.3	36.3	89	33.4	0	0	---	0.00	30.038 
01:15	36.5	36.5	36.5	89	33.6	0	0	---	0.00	30.032 
01:20	36.5	36.5	36.5	89	33.6	0	0	---	0.00	30.032 
01:25	36.6	36.6	36.6	89	33.7	0	0	---	0.00	30.032 
01:30	36.6	36.6	36.6	89	33.7	0	0	---	0.00	30.034 
01:35	36.6	36.6	36.6	89	33.7	0	0	---	0.00	30.034 
01:40	36.5	36.5	36.5	88	33.3	0	0	---	0.00	30.034 
01:45	36.3	36.3	36.3	88	33.1	0	0	---	0.00	30.034 
01:50	36.3	36.3	36.3	88	33.1	0	0	---	0.00	30.034 
01:55	36.3	36.3	36.3	88	33.1	0	0	---	0.00	30.034 
02:00	36.3	36.3	36.3	89	33.4	0	0	---	0.00	30.035 
02:05	36.3	36.3	36.3	89	33.4	0	0	---	0.00	30.035 
02:10	36.5	36.5	36.5	89	33.6	0	0	---	0.00	30.035 
02:15	36.6	36.6	36.6	89	33.7	0	0	---	0.00	30.029 
02:20	36.9	36.9	36.9	89	34.0	0	0	---	0.00	30.029 
02:25	37.2	37.2	37.2	89	34.3	0	0	---	0.00	30.029 
02:30	37.5	37.5	37.5	89	34.6	0	0	---	0.00	30.032 
02:35	37.6	37.6	37.6	89	34.7	0	0	---	0.00	30.032 
02:40	37.8	37.8	37.8	89	34.9	0	0	---	0.00	30.032 
02:45	37.9	37.9	37.9	88	34.7	0	0	---	0.00	30.028 
02:50	38.0	38.0	38.0	88	34.8	0	0	---	0.00	30.028 
02:55	38.2	38.2	38.2	88	35.0	0	0	---	0.00	30.028 
03:00	38.2	38.2	38.2	87	34.7	0	0	---	0.00	30.032 
03:05	38.2	38.2	38.2	87	34.7	0	0	---	0.00	30.032 
03:10	38.2	38.2	38.2	87	34.7	0	0	---	0.00	30.032 
03:15	38.3	38.3	38.3	87	34.8	0	0	---	0.00	30.029 
03:20	38.3	38.3	38.3	86	34.5	0	0	---	0.00	30.029 
03:25	38.3	38.3	38.3	86	34.5	0	0	---	0.00	30.029 
03:30	38.2	38.2	38.2	86	34.4	0	0	---	0.00	30.029 
03:35	38.0	38.0	38.0	86	34.2	0	0	---	0.00	30.029 
03:40	37.9	37.9	37.9	86	34.1	0	0	---	0.00	30.029 
03:45	37.8	37.8	37.8	86	34.0	0	0	---	0.00	30.026 
03:50	37.6	37.6	37.6	86	33.8	0	0	---	0.00	30.026 
03:55	37.3	37.3	37.3	85	33.2	0	0	---	0.00	30.026 
04:00	37.2	37.2	37.2	86	33.4	0	0	---	0.00	30.017 
04:05	36.9	36.9	36.9	87	33.4	0	0	---	0.00	30.017 
04:10	36.8	36.8	36.8	87	33.3	0	0	---	0.00	30.017 
04:15	36.6	36.6	36.6	87	33.1	0	0	---	0.00	30.015 
04:20	36.5	36.5	36.5	87	33.0	0	0	---	0.00	30.015 
04:25	36.3	36.3	36.3	88	33.1	0	0	---	0.00	30.015 
04:30	36.2	36.2	36.2	88	33.0	0	0	---	0.00	30.018 
04:35	35.9	35.9	35.9	88	32.7	0	0	---	0.00	30.018 
04:40	35.6	35.6	35.6	88	32.4	0	0	---	0.00	30.018 
04:45	35.5	35.5	35.5	88	32.3	0	0	---	0.00	30.018 
04:50	35.3	35.3	35.3	88	32.1	0	0	---	0.00	30.018 
04:55	35.0	35.0	35.0	88	31.8	0	0	---	0.00	30.018 
05:00	34.9	34.9	34.9	88	31.7	0	0	---	0.00	30.024 
05:05	34.7	34.7	34.7	88	31.5	0	0	---	0.00	30.024 
05:10	34.4	34.4	34.4	88	31.2	0	0	---	0.00	30.024 
05:15	34.3	34.3	34.3	88	31.1	0	0	---	0.00	30.034 
05:20	34.1	34.1	34.1	89	31.2	0	0	---	0.00	30.034 
05:25	34.0	34.0	34.0	89	31.1	0	0	---	0.00	30.034 
05:30	33.8	33.8	33.8	89	30.9	0	0	---	0.00	30.034 
05:35	33.7	33.7	33.7	89	30.8	0	0	---	0.00	30.034 
05:40	33.4	33.4	33.4	89	30.5	0	0	---	0.00	30.034 
05:45	33.2	33.2	33.2	89	30.3	0	0	---	0.00	30.034 
05:50	33.1	33.1	33.1	89	30.2	0	0	---	0.00	30.034 
05:55	33.1	33.1	33.1	90	30.5	0	0	---	0.00	30.034 
06:00	33.1	33.1	33.1	90	30.5	0	0	---	0.00	30.033 
06:05	33.1	33.1	33.1	90	30.5	0	0	---	0.00	30.033 
06:10	33.1	33.1	33.1	90	30.5	0	0	---	0.00	30.033 
06:15	33.1	33.1	33.1	90	30.5	0	0	---	0.00	30.041 
06:20	32.9	32.9	32.9	90	30.3	0	0	---	0.00	30.041 
06:25	32.8	32.8	32.8	91	30.5	0	0	---	0.00	30.041 
06:30	32.7	32.7	32.7	90	30.1	0	0	---	0.00	30.047 
06:35	32.5	32.5	32.5	91	30.2	0	0	---	0.00	30.047 
06:40	32.4	32.4	32.4	91	30.1	0	0	---	0.00	30.047 
06:45	32.2	32.2	32.2	91	29.9	0	0	---	0.00	30.049 
06:50	32.1	32.1	32.1	91	29.8	0	0	---	0.00	30.049 
06:55	31.9	31.9	31.9	91	29.6	0	0	---	0.00	30.049 
07:00	31.8	31.8	31.8	91	29.5	0	0	---	0.00	30.050 
07:05	31.6	31.6	31.6	91	29.3	0	0	---	0.00	30.050 
07:10	31.5	31.5	31.5	91	29.2	0	0	---	0.00	30.050 
07:15	31.3	31.3	31.3	91	29.0	0	0	---	0.00	30.047 
07:20	31.3	31.3	31.3	91	29.0	0	0	---	0.00	30.047 
07:25	31.2	31.2	31.2	91	28.9	0	0	---	0.00	30.047 
07:30	31.0	31.0	31.0	91	28.7	0	0	---	0.00	30.054 
07:35	30.9	30.9	30.9	91	28.6	0	0	---	0.00	30.054 
07:40	30.6	30.6	30.6	91	28.3	0	0	---	0.00	30.054 
07:45	30.4	30.4	30.4	91	28.1	0	0	---	0.00	30.057 
07:50	30.4	30.4	30.4	91	28.1	0	0	---	0.00	30.057 
07:55	30.3	30.3	30.3	91	28.0	0	0	---	0.00	30.057 
08:00	30.3	30.3	30.3	91	28.0	0	0	---	0.00	30.061 
08:05	30.3	30.3	30.3	91	28.0	0	0	---	0.00	30.061 
08:10	30.1	30.1	30.1	92	28.1	0	0	---	0.00	30.061 
08:15	30.1	30.1	30.1	92	28.1	0	0	---	0.00	30.075 
08:20	30.0	30.0	30.0	92	28.0	0	0	---	0.00	30.075 
08:25	30.0	30.0	30.0	92	28.0	0	0	---	0.00	30.075 
08:30	30.0	30.0	30.0	92	28.0	0	0	---	0.00	30.072 
08:35	30.0	30.0	30.0	92	28.0	0	0	---	0.00	30.072 
08:40	30.0	30.0	30.0	92	28.0	0	0	---	0.00	30.072 
08:45	30.1	30.1	30.1	92	28.1	0	0	---	0.00	30.074 
08:50	30.4	30.4	30.4	92	28.4	0	0	---	0.00	30.074 
08:55	30.6	30.6	30.6	92	28.6	0	0	---	0.00	30.074 
09:00	30.9	30.9	30.9	92	28.9	0	0	---	0.00	30.076 
09:05	31.2	31.2	31.2	92	29.2	0	0	---	0.00	30.076 
09:10	31.8	31.8	31.8	93	30.0	0	0	---	0.00	30.076 
09:15	32.5	32.5	32.5	93	30.7	0	0	---	0.00	30.079 
09:20	32.9	32.9	32.9	93	31.1	0	0	---	0.00	30.079 
09:25	33.4	33.4	33.4	93	31.6	0	0	---	0.00	30.079 
09:30	33.8	33.8	33.8	93	32.0	0	0	---	0.00	30.079 
09:35	34.4	34.4	34.4	94	32.9	0	0	---	0.00	30.079 
09:40	35.0	35.0	35.0	94	33.5	0	0	---	0.00	30.079 
09:45	35.6	35.6	35.6	94	34.0	0	0	---	0.00	30.081 
09:50	36.2	36.2	36.2	94	34.6	0	1	270	0.00	30.081 
09:55	36.9	36.9	36.9	94	35.3	0	0	---	0.00	30.081 
10:00	37.5	37.5	37.5	93	35.7	0	1	270	0.00	30.088 
10:05	38.2	38.2	38.2	93	36.4	0	1	270	0.00	30.088 
10:10	39.1	39.1	39.1	92	37.0	0	1	270	0.00	30.088 
10:15	39.9	39.9	39.9	90	37.2	0	1	270	0.00	30.086 
10:20	40.8	40.8	40.8	87	37.2	0	1	270	0.00	30.086 
10:25	41.6	41.6	41.6	84	37.1	0	1	270	0.00	30.086 
10:30	42.5	42.5	42.5	80	36.8	0	2	270	0.00	30.085 
10:35	43.3	43.3	43.3	77	36.6	0	1	270	0.00	30.085 
10:40	44.1	44.1	44.1	74	36.4	0	1	270	0.00	30.085 
10:45	44.6	44.6	44.6	71	35.8	0	2	270	0.00	30.086 
10:50	44.9	44.9	44.9	68	35.0	0	2	270	0.00	30.086 
10:55	45.2	45.2	45.2	66	34.5	1	2	270	0.00	30.086 
11:00	45.5	45.5	45.5	65	34.4	0	1	270	0.00	30.083 
11:05	46.1	46.1	46.1	64	34.6	1	3	270	0.00	30.083 
11:10	46.5	46.5	46.5	62	34.2	1	2	270	0.00	30.083 
11:15	47.0	47.0	47.0	60	33.8	1	2	270	0.00	30.085 
11:20	47.4	47.4	47.4	59	33.8	1	3	270	0.00	30.085 
11:25	47.6	47.6	47.6	58	33.6	1	3	270	0.00	30.085 
11:30	47.7	47.7	47.7	58	33.7	1	2	270	0.00	30.083 
11:35	48.0	48.0	48.0	58	33.9	1	3	270	0.00	30.083 
11:40	48.5	48.5	48.5	57	34.0	1	4	270	0.00	30.083 
11:45	48.6	48.6	48.6	57	34.1	1	4	270	0.00	30.077 
11:50	48.9	48.9	48.9	56	33.9	1	4	270	0.00	30.077 
11:55	49.2	49.2	49.2	55	33.7	1	4	270	0.00	30.077 
12:00	49.5	49.5	49.5	54	33.6	1	4	270	0.00	30.081 
12:05	49.8	49.8	49.8	53	33.4	1	3	270	0.00	30.081 
12:10	49.6	49.6	49.6	52	32.7	2	5	270	0.00	30.081 
12:15	49.8	49.8	49.8	50	31.9	1	3	270	0.00	30.081 
12:20	50.2	50.2	50.2	50	32.3	1	3	315	0.00	30.081 
12:25	50.5	50.5	50.5	48	31.5	1	4	292	0.00	30.081 
12:30	50.4	50.4	50.4	47	30.9	2	6	315	0.00	30.072 
12:35	50.4	50.4	50.4	44	29.3	2	4	270	0.00	30.072 
12:40	50.5	50.5	50.5	47	31.0	1	4	292	0.00	30.072 
12:45	50.7	50.7	50.7	44	29.6	1	4	270	0.00	30.074 
12:50	51.0	51.0	51.0	44	29.9	1	3	270	0.00	30.074 
12:55	51.0	51.0	51.0	43	29.3	2	5	270	0.00	30.074 
13:00	51.0	51.0	51.0	44	29.9	2	4	292	0.00	30.068 
13:05	51.0	51.0	51.0	44	29.9	1	4	270	0.00	30.068 
13:10	51.1	51.1	51.1	45	30.5	1	3	270	0.00	30.068 
13:15	51.4	51.4	51.4	44	30.2	1	3	270	0.00	30.062 
13:20	51.6	51.6	51.6	43	29.8	1	4	270	0.00	30.062 
13:25	51.6	51.6	51.6	43	29.8	1	4	270	0.00	30.062 
13:30	51.3	51.3	51.3	43	29.6	2	6	270	0.00	30.052 
13:35	51.4	51.4	51.4	43	29.7	1	4	292	0.00	30.052 
13:40	51.6	51.6	51.6	42	29.3	2	4	248	0.00	30.052 
13:45	51.6	51.6	51.6	43	29.8	1	3	248	0.00	30.045 
13:50	51.9	51.9	51.9	41	28.9	1	5	248	0.00	30.045 
13:55	52.0	52.0	52.0	41	29.0	1	3	270	0.00	30.045 
14:00	52.2	52.2	52.2	42	29.8	0	3	270	0.00	30.038 
14:05	52.2	52.2	52.2	40	28.6	1	3	270	0.00	30.038 
14:10	52.2	52.2	52.2	41	29.2	1	3	270	0.00	30.038 
14:15	52.3	52.3	52.3	40	28.7	0	2	270	0.00	30.033 
14:20	52.5	52.5	52.5	43	30.7	0	4	270	0.00	30.033 
14:25	52.6	52.6	52.6	40	29.0	1	3	270	0.00	30.033 
14:30	52.8	52.8	52.8	41	29.8	0	2	270	0.00	30.032 
14:35	52.6	52.6	52.6	39	28.4	1	4	248	0.00	30.032 
14:40	52.6	52.6	52.6	40	29.0	0	3	248	0.00	30.032 
14:45	52.8	52.8	52.8	40	29.2	0	2	248	0.00	30.030 
14:50	52.8	52.8	52.8	40	29.2	0	3	248	0.00	30.030 
14:55	52.5	52.5	52.5	40	28.9	2	5	315	0.00	30.030 
15:00	52.3	52.3	52.3	41	29.3	1	3	315	0.00	30.028 
15:05	52.6	52.6	52.6	40	29.0	1	3	315	0.00	30.028 
15:10	52.8	52.8	52.8	39	28.5	1	4	292	0.00	30.028 
15:15	52.9	52.9	52.9	40	29.2	1	4	292	0.00	30.028 
15:20	52.9	52.9	52.9	39	28.6	2	4	292	0.00	30.028 
15:25	53.2	53.2	53.2	39	28.9	0	2	270	0.00	30.028 
15:30	53.2	53.2	53.2	38	28.3	2	5	270	0.00	30.023 
15:35	53.2	53.2	53.2	39	28.9	0	3	292	0.00	30.023 
15:40	53.3	53.3	53.3	39	29.0	0	1	292	0.00	30.023 
15:45	53.5	53.5	53.5	38	28.5	1	4	292	0.00	30.018 
15:50	53.6	53.6	53.6	38	28.6	1	3	270	0.00	30.018 
15:55	53.9	53.9	53.9	39	29.5	0	3	292	0.00	30.018 
16:00	54.2	54.2	54.2	36	27.8	0	2	292	0.00	30.015 
16:05	54.1	54.1	54.1	37	28.4	0	1	292	0.00	30.015 
16:10	54.1	54.1	54.1	37	28.4	0	3	292	0.00	30.015 
16:15	53.9	53.9	53.9	39	29.5	0	2	338	0.00	30.016 
16:20	53.9	53.9	53.9	35	26.9	1	3	248	0.00	30.016 
16:25	53.6	53.6	53.6	36	27.3	1	4	248	0.00	30.016 
16:30	53.6	53.6	53.6	36	27.3	0	2	270	0.00	30.017 
16:35	53.6	53.6	53.6	38	28.6	0	2	270	0.00	30.017 
16:40	53.6	53.6	53.6	38	28.6	1	3	270	0.00	30.017 
16:45	53.6	53.6	53.6	38	28.6	0	4	270	0.00	30.022 
16:50	53.6	53.6	53.6	37	28.0	0	2	270	0.00	30.022 
16:55	53.5	53.5	53.5	37	27.9	0	2	270	0.00	30.022 
17:00	53.5	53.5	53.5	37	27.9	1	3	270	0.00	30.022 
17:05	53.3	53.3	53.3	38	28.3	0	2	270	0.00	30.022 
17:10	53.3	53.3	53.3	37	27.7	0	2	270	0.00	30.022 
17:15	53.2	53.2	53.2	37	27.6	0	3	292	0.00	30.026 
17:20	53.1	53.1	53.1	38	28.2	0	3	292	0.00	30.026 
17:25	53.1	53.1	53.1	38	28.2	0	1	248	0.00	30.026 
17:30	53.1	53.1	53.1	39	28.8	0	1	248	0.00	30.023 
17:35	52.9	52.9	52.9	38	28.0	0	1	248	0.00	30.023 
17:40	52.8	52.8	52.8	38	27.9	0	2	248	0.00	30.023 
17:45	52.8	52.8	52.8	39	28.5	0	1	248	0.00	30.023 
17:50	52.5	52.5	52.5	39	28.3	0	1	248	0.00	30.023 
17:55	52.3	52.3	52.3	38	27.5	0	1	248	0.00	30.023 
18:00	52.2	52.2	52.2	39	28.0	0	2	248	0.00	30.026 
18:05	52.0	52.0	52.0	40	28.4	0	2	248	0.00	30.026 
18:10	51.9	51.9	51.9	40	28.3	0	1	248	0.00	30.026 
18:15	51.6	51.6	51.6	40	28.1	0	2	248	0.00	30.025 
18:20	51.3	51.3	51.3	40	27.8	0	1	248	0.00	30.025 
18:25	51.1	51.1	51.1	41	28.2	0	1	248	0.00	30.025 
18:30	50.8	50.8	50.8	42	28.5	0	1	248	0.00	30.033 
18:35	50.7	50.7	50.7	42	28.5	0	0	---	0.00	30.033 
18:40	50.4	50.4	50.4	43	28.8	0	1	248	0.00	30.033 
18:45	49.9	49.9	49.9	44	28.9	0	1	248	0.00	30.035 
18:50	49.6	49.6	49.6	44	28.6	0	0	---	0.00	30.035 
18:55	49.2	49.2	49.2	45	28.8	0	0	---	0.00	30.035 
19:00	48.9	48.9	48.9	45	28.5	0	0	---	0.00	30.040 
19:05	48.5	48.5	48.5	46	28.7	0	0	---	0.00	30.040 
19:10	47.9	47.9	47.9	48	29.2	0	0	---	0.00	30.040 
19:15	47.4	47.4	47.4	49	29.2	0	0	---	0.00	30.042 
19:20	47.0	47.0	47.0	50	29.3	0	0	---	0.00	30.042 
19:25	46.4	46.4	46.4	51	29.3	0	0	---	0.00	30.042 
19:30	46.0	46.0	46.0	52	29.4	0	0	---	0.00	30.040 
19:35	45.5	45.5	45.5	53	29.4	0	0	---	0.00	30.040 
19:40	45.1	45.1	45.1	54	29.5	0	0	---	0.00	30.040 
19:45	44.5	44.5	44.5	57	30.2	0	0	---	0.00	30.044 
19:50	43.9	43.9	43.9	58	30.1	0	0	---	0.00	30.044 
19:55	43.5	43.5	43.5	58	29.7	0	0	---	0.00	30.044 
20:00	43.1	43.1	43.1	59	29.8	0	0	---	0.00	30.047 
20:05	42.6	42.6	42.6	60	29.7	0	0	---	0.00	30.047 
20:10	42.2	42.2	42.2	61	29.7	0	0	---	0.00	30.047 
20:15	41.8	41.8	41.8	61	29.4	0	0	---	0.00	30.046 
20:20	41.5	41.5	41.5	62	29.5	0	0	---	0.00	30.046 
20:25	41.1	41.1	41.1	64	29.9	0	0	---	0.00	30.046 
20:30	40.6	40.6	40.6	64	29.4	0	0	---	0.00	30.048 
20:35	40.3	40.3	40.3	65	29.5	0	0	---	0.00	30.048 
20:40	39.9	39.9	39.9	66	29.5	0	0	---	0.00	30.048 
20:45	39.6	39.6	39.6	68	29.9	0	0	---	0.00	30.050 
20:50	39.3	39.3	39.3	68	29.6	0	0	---	0.00	30.050 
20:55	39.1	39.1	39.1	69	29.8	0	0	---	0.00	30.050 
21:00	38.8	38.8	38.8	70	29.9	0	0	---	0.00	30.054 
21:05	38.6	38.6	38.6	71	30.0	0	0	---	0.00	30.054 
21:10	38.3	38.3	38.3	72	30.1	0	0	---	0.00	30.054 
21:15	38.0	38.0	38.0	73	30.1	0	0	---	0.00	30.047 
21:20	37.8	37.8	37.8	74	30.3	0	0	---	0.00	30.047 
21:25	37.6	37.6	37.6	74	30.1	0	0	---	0.00	30.047 
21:30	37.5	37.5	37.5	75	30.3	0	0	---	0.00	30.048 
21:35	37.2	37.2	37.2	76	30.3	0	0	---	0.00	30.048 
21:40	37.0	37.0	37.0	76	30.2	0	0	---	0.00	30.048 
21:45	36.8	36.8	36.8	77	30.3	0	0	---	0.00	30.057 
21:50	36.6	36.6	36.6	77	30.1	0	0	---	0.00	30.057 
21:55	36.3	36.3	36.3	77	29.8	0	0	---	0.00	30.057 
22:00	36.2	36.2	36.2	78	30.0	0	0	---	0.00	30.060 
22:05	35.9	35.9	35.9	79	30.0	0	0	---	0.00	30.060 
22:10	35.8	35.8	35.8	79	29.9	0	0	---	0.00	30.060 
22:15	35.8	35.8	35.8	80	30.2	0	0	---	0.00	30.054 
22:20	35.6	35.6	35.6	80	30.1	0	0	---	0.00	30.054 
22:25	35.5	35.5	35.5	80	30.0	0	0	---	0.00	30.054 
22:30	35.3	35.3	35.3	81	30.1	0	0	---	0.00	30.057 
22:35	35.2	35.2	35.2	81	30.0	0	0	---	0.00	30.057 
22:40	35.0	35.0	35.0	81	29.8	0	0	---	0.00	30.057 
22:45	34.9	34.9	34.9	82	30.0	0	0	---	0.00	30.060 
22:50	34.7	34.7	34.7	82	29.8	0	0	---	0.00	30.060 
22:55	34.6	34.6	34.6	83	30.0	0	0	---	0.00	30.060 
23:00	34.4	34.4	34.4	83	29.8	0	0	---	0.00	30.068 
23:05	34.3	34.3	34.3	83	29.7	0	0	---	0.00	30.068 
23:10	34.1	34.1	34.1	83	29.5	0	0	---	0.00	30.068 
23:15	34.0	34.0	34.0	84	29.7	0	0	---	0.00	30.067 
23:20	33.8	33.8	33.8	84	29.5	0	0	---	0.00	30.067 
23:25	33.7	33.7	33.7	84	29.4	0	0	---	0.00	30.067 
23:30	33.7	33.7	33.7	84	29.4	0	0	---	0.00	30.068 
23:35	33.5	33.5	33.5	84	29.2	0	0	---	0.00	30.068 
23:40	33.5	33.5	33.5	84	29.2	0	0	---	0.00	30.068 
23:45	33.4	33.4	33.4	84	29.1	0	0	---	0.00	30.071 
23:50	33.4	33.4	33.4	84	29.1	0	0	---	0.00	30.071 
23:55	33.2	33.2	33.2	84	28.9	0	0	---	0.00	30.071 

CoCoRaHS
IN-AL-39
A2 Web Hosting
Creative Commons License
GoDaddy
search engine by freefind advanced

loaded 2018-11-17 06:59:12 • last modified 2010-11-18 10:43:29
Privacy PolicyDisclaimer
• wx.awcolley.com is powered by PmWiki v.2002016 •
• all content (unless otherwise noted) © 2018 A W Colley